VNKT

Details ICAO VNKT (KTM)
Name Kathmandu Tribhuvan Intl
Region Nepal
Timezone Asia/Kathmandu (UTC+5.8)
Plans Departing 649
Arriving 676
Stats Elevation 4,395 ft / 1,340 m (AMSL)
Location 27.696600° 85.359200°
Runways 1
Magnetic Variation 0.534° E
Sunrise 2018-10-16 00:20:05 UTC / 2018-10-16 06:05:05 Local
Sunset 2018-10-16 11:50:35 UTC / 2018-10-16 17:35:35 Local
Advertisement - Login to hide

Runways

ID Width Length Bearing (true/mag) Surface Threshold Overrun Markings Lighting
02 151 ft / 46 m 10,016 ft / 3,053 m 21.95° / 21.42° ASPHALT 0 ft / 0 m 0 ft / 0 m PREC-APP EDGE THRESHOLD SALS REIL-OMNI
20 151 ft / 46 m 10,016 ft / 3,053 m 201.96° / 201.42° ASPHALT 404 ft / 123 m 0 ft / 0 m PREC-APP EDGE THRESHOLD REIL-OMNI

Map

Weather


0- 5 10 15 20 25 30 35+ Temperature / °C

Clouds and Precipitation
Forecast for 2018-10-16 12:00 UTC. Updated 5 hours ago

Ground ~20,000 ft ~40,000 ft Winds

METAR

VNKT 161420Z 23004KT 6000 FEW015 SCT030 BKN100 18/14 Q1019 NOSIG

TAF

TAF VNKT 161100Z 1612/1712 22010K 8000 FEW015 SCT030 BECMG 1613/1614 VRB03KT 6000 FEW010 BECMG 1700/1702 VRB02KT 5000 BR FEW010 SCT100 PROB40 1700/1703 3000 BR BECMG 1704/1705 15003KT 6000 FEW010 SCT030 BECMG 1707/1708 26008KT 8000 FEW015 SCT100

Frequencies

Recorded 127.00 MHz KATHMANDU ATIS
Tower 118.10 MHz KATHMANDU TWR
Ground 121.90 MHz KATHMANDU GND
Approach 125.10 MHz KATHMANDU APP
Warning: Do not use this data for real-world aviation or navigation. No guarantee of current accuracy is given.